PH-0034 weather

Public forecast

Using degrees Celsius for public forecast. Weather courtesy of forecast.io.

Closest aviation weather report (METAR) to Manila North Harbor Container Terminal Helipad

Closest report is Ninoy Aquino International Airport, 7.5 nm (13.9 km) SSE. Retrieved 2020/08/09 08:00 UTC (16 minutes ago):

RPLL 090800Z AUTO VRB02KT 9999 FEW028/// SCT035/// 27/25 Q1006

Closest aviation forecast (TAF) to Manila North Harbor Container Terminal Helipad

Closest forecast is Ninoy Aquino International Airport, 7.5 nm (13.9 km) SSE. Retrieved 2020/08/09 06:26 UTC (2 hours ago):

TAF RPLL 090500Z 0906/1012 20010KT 9000 -SHRA SCT022 OVC100 TX28/0905Z TN23/0920Z TEMPO 0906/0912 22015G25KT 5000 RA BKN020 OVC090 TEMPO 0912/0918 21005KT 7000 -RA SCT020 OVC100